createdAt,value
2022-08-05T00:00:56.219Z,4.50
2022-08-05T00:03:45.578Z,4.23
2022-08-05T00:06:28.942Z,3.60
2022-08-05T00:09:01.315Z,3.97
2022-08-05T00:11:30.665Z,3.90
2022-08-05T00:14:12.821Z,3.60
2022-08-05T00:16:52.983Z,4.10
2022-08-05T00:19:25.038Z,3.57
2022-08-05T00:22:04.357Z,4.20
2022-08-05T00:24:33.184Z,3.70
2022-08-05T00:27:04.467Z,3.93
2022-08-05T00:29:38.964Z,3.80
2022-08-05T00:32:13.217Z,4.50
2022-08-05T00:35:03.438Z,4.07
2022-08-05T00:37:52.496Z,3.77
2022-08-05T00:40:28.425Z,3.70
2022-08-05T00:42:59.453Z,3.67
2022-08-05T00:45:38.267Z,3.40
2022-08-05T00:48:09.416Z,3.53
2022-08-05T00:50:41.406Z,4.23
2022-08-05T00:53:59.858Z,3.77
2022-08-05T00:56:05.653Z,4.27
2022-08-05T00:58:37.229Z,4.07
2022-08-05T01:01:09.073Z,3.67
2022-08-05T01:03:39.017Z,3.63
2022-08-05T01:06:11.424Z,3.70
2022-08-05T01:08:47.266Z,3.73
2022-08-05T01:11:22.248Z,4.20
2022-08-05T01:14:08.713Z,3.63
2022-08-05T01:16:49.266Z,3.90
2022-08-05T01:19:36.694Z,4.00
2022-08-05T01:22:31.800Z,3.90
2022-08-05T01:25:39.945Z,4.30
2022-08-05T01:28:30.582Z,3.83
2022-08-05T01:31:03.377Z,4.20
2022-08-05T01:33:36.517Z,5.23
2022-08-05T01:36:12.856Z,5.20
2022-08-05T01:38:42.294Z,3.70
2022-08-05T01:41:12.342Z,4.27
2022-08-05T01:43:45.064Z,4.40
2022-08-05T01:46:42.828Z,4.70
2022-08-05T01:49:23.118Z,4.13
2022-08-05T01:52:01.102Z,4.93
2022-08-05T01:54:32.989Z,4.37
2022-08-05T01:58:09.431Z,4.10
2022-08-05T01:59:54.220Z,3.70
2022-08-05T02:02:26.105Z,3.83
2022-08-05T02:04:59.785Z,3.57
2022-08-05T02:07:30.501Z,3.63
2022-08-05T02:10:00.380Z,3.60
2022-08-05T02:12:34.886Z,3.47
2022-08-05T02:15:12.205Z,2.93
2022-08-05T02:18:31.093Z,2.50
2022-08-05T02:20:49.351Z,2.83
2022-08-05T02:23:20.864Z,2.67
2022-08-05T02:25:51.172Z,2.20
2022-08-05T02:28:28.427Z,2.70
2022-08-05T02:31:04.151Z,2.87
2022-08-05T02:33:38.801Z,2.90
2022-08-05T02:36:13.579Z,2.63
2022-08-05T02:38:53.159Z,2.70
2022-08-05T02:41:28.703Z,2.67
2022-08-05T02:44:12.146Z,2.77
2022-08-05T02:46:58.387Z,2.77
2022-08-05T02:49:36.399Z,2.83
2022-08-05T02:52:09.141Z,2.77
2022-08-05T02:54:42.159Z,2.83
2022-08-05T02:58:10.618Z,3.37
2022-08-05T03:00:02.591Z,2.37
2022-08-05T03:02:36.187Z,3.00
2022-08-05T03:05:06.880Z,2.90
2022-08-05T03:07:59.413Z,2.77
2022-08-05T03:10:25.681Z,3.00
2022-08-05T03:12:55.050Z,2.97
2022-08-05T03:15:24.638Z,2.87
2022-08-05T03:17:57.637Z,3.33
2022-08-05T03:20:26.911Z,2.57
2022-08-05T03:22:57.640Z,2.77
2022-08-05T03:25:33.342Z,3.13
2022-08-05T03:28:18.510Z,2.77
2022-08-05T03:30:48.589Z,3.17
2022-08-05T03:33:19.872Z,3.10
2022-08-05T03:35:51.623Z,3.23
2022-08-05T03:38:32.644Z,3.10
2022-08-05T03:41:08.346Z,4.07
2022-08-05T03:44:08.533Z,3.10
2022-08-05T03:46:30.062Z,3.20
2022-08-05T03:49:02.764Z,3.57
2022-08-05T03:52:39.132Z,3.13
2022-08-05T03:55:34.230Z,3.53
2022-08-05T03:57:41.965Z,4.30
2022-08-05T04:00:15.920Z,3.80
2022-08-05T04:02:57.890Z,3.93
2022-08-05T04:05:33.920Z,3.70
2022-08-05T04:08:05.578Z,3.97
2022-08-05T04:10:38.167Z,4.00
2022-08-05T04:13:08.168Z,4.00
2022-08-05T04:15:37.085Z,4.20
2022-08-05T04:18:09.345Z,5.00
2022-08-05T04:20:41.147Z,4.00
2022-08-05T04:23:12.254Z,4.60
2022-08-05T04:25:57.231Z,3.40
2022-08-05T04:28:31.859Z,4.20
2022-08-05T04:31:01.642Z,3.47
2022-08-05T04:34:17.537Z,3.80
2022-08-05T04:36:44.825Z,4.10
2022-08-05T04:39:15.987Z,4.60
2022-08-05T04:41:44.935Z,4.57
2022-08-05T04:44:14.897Z,4.27
2022-08-05T04:46:49.841Z,4.30
2022-08-05T04:49:24.750Z,4.07
2022-08-05T04:52:08.466Z,3.57
2022-08-05T04:54:37.209Z,3.50
2022-08-05T04:57:06.121Z,3.37
2022-08-05T04:59:38.885Z,4.20
2022-08-05T05:02:36.463Z,3.60
2022-08-05T05:05:01.722Z,3.20
2022-08-05T05:07:35.638Z,3.17
2022-08-05T05:10:06.601Z,3.73
2022-08-05T05:12:36.834Z,4.23
2022-08-05T05:15:10.938Z,3.67
2022-08-05T05:17:57.019Z,4.20
2022-08-05T05:20:28.328Z,3.40
2022-08-05T05:22:59.147Z,4.30
2022-08-05T05:25:40.592Z,4.07
2022-08-05T05:28:10.232Z,4.17
2022-08-05T05:30:39.314Z,4.33
2022-08-05T05:33:17.213Z,3.53
2022-08-05T05:35:47.405Z,4.13
2022-08-05T05:38:22.457Z,3.73
2022-08-05T05:40:57.036Z,3.70
2022-08-05T05:43:57.524Z,4.00
2022-08-05T05:46:17.221Z,3.57
2022-08-05T05:48:48.033Z,3.57
2022-08-05T05:51:21.729Z,4.20
2022-08-05T05:53:57.865Z,4.03
2022-08-05T05:56:33.085Z,4.60
2022-08-05T05:59:05.338Z,4.13
2022-08-05T06:01:37.519Z,3.60
2022-08-05T06:04:11.986Z,4.00
2022-08-05T06:06:42.752Z,4.17
2022-08-05T06:09:17.036Z,3.70
2022-08-05T06:11:59.177Z,3.93
2022-08-05T06:14:31.271Z,3.63
2022-08-05T06:17:02.115Z,4.30
2022-08-05T06:19:56.588Z,3.20
2022-08-05T06:22:30.623Z,3.67
2022-08-05T06:25:25.165Z,3.70
2022-08-05T06:28:12.174Z,3.43
2022-08-05T06:30:44.064Z,3.60
2022-08-05T06:33:13.109Z,2.80
2022-08-05T06:36:07.183Z,3.70
2022-08-05T06:38:37.295Z,3.37
2022-08-05T06:41:08.326Z,3.40
2022-08-05T06:43:58.298Z,3.37
2022-08-05T06:46:29.765Z,2.73
2022-08-05T06:49:00.884Z,3.30
2022-08-05T06:51:31.336Z,3.10
2022-08-05T06:54:01.964Z,3.10
2022-08-05T06:56:34.838Z,3.10
2022-08-05T06:59:08.686Z,3.10
2022-08-05T07:01:40.674Z,3.60
2022-08-05T07:04:14.300Z,2.60
2022-08-05T07:06:50.455Z,3.27
2022-08-05T07:09:19.602Z,2.77
2022-08-05T07:11:51.732Z,2.80
2022-08-05T07:14:37.949Z,3.03
2022-08-05T07:17:59.534Z,2.80
2022-08-05T07:22:45.720Z,3.03
2022-08-05T07:25:54.068Z,3.03
2022-08-05T07:28:09.598Z,3.03
2022-08-05T07:30:41.582Z,2.90
2022-08-05T07:33:16.388Z,3.03
2022-08-05T07:36:04.850Z,3.10
2022-08-05T07:38:42.932Z,2.90
2022-08-05T07:42:07.027Z,2.83
2022-08-05T07:44:12.082Z,3.50
2022-08-05T07:46:48.453Z,2.30
2022-08-05T07:49:18.889Z,2.70
2022-08-05T07:51:53.290Z,2.37
2022-08-05T07:54:30.629Z,2.90
2022-08-05T07:57:17.965Z,2.10
2022-08-05T07:59:52.580Z,2.30
2022-08-05T08:02:26.685Z,2.27
2022-08-05T08:05:00.051Z,2.27
2022-08-05T08:07:29.418Z,2.50
2022-08-05T08:10:09.107Z,2.40
2022-08-05T08:12:49.440Z,2.77
2022-08-05T08:16:33.455Z,2.33
2022-08-05T08:18:14.321Z,2.70
2022-08-05T08:21:02.981Z,2.60
2022-08-05T08:24:01.768Z,2.03
2022-08-05T08:26:29.290Z,2.57
2022-08-05T08:29:21.499Z,2.07
2022-08-05T08:31:52.079Z,2.37
2022-08-05T08:34:30.196Z,2.30
2022-08-05T08:37:04.989Z,1.97
2022-08-05T08:39:37.703Z,2.10
2022-08-05T08:42:22.515Z,2.00
2022-08-05T08:45:23.303Z,1.83
2022-08-05T08:48:12.725Z,1.73
2022-08-05T08:51:03.225Z,1.50
2022-08-05T08:53:29.424Z,1.63
2022-08-05T08:56:04.776Z,2.50
2022-08-05T08:58:43.475Z,1.37
2022-08-05T09:01:18.343Z,1.50
2022-08-05T09:03:52.828Z,1.63
2022-08-05T09:06:28.559Z,1.70
2022-08-05T09:09:00.422Z,1.60
2022-08-05T09:11:51.549Z,1.57
2022-08-05T09:14:56.938Z,1.90
2022-08-05T09:17:40.199Z,1.63
2022-08-05T09:20:02.251Z,1.40
2022-08-05T09:23:18.887Z,1.90
2022-08-05T09:26:01.505Z,1.40
2022-08-05T09:28:34.238Z,2.00
2022-08-05T09:31:44.060Z,1.83
2022-08-05T09:33:56.507Z,1.77
2022-08-05T09:36:54.036Z,1.90
2022-08-05T09:39:39.453Z,1.43
2022-08-05T09:42:17.521Z,1.90
2022-08-05T09:44:56.554Z,1.80
2022-08-05T09:47:48.041Z,1.70
2022-08-05T09:50:37.753Z,1.73
2022-08-05T09:53:09.111Z,1.80
2022-08-05T09:55:56.895Z,2.03
2022-08-05T09:58:31.924Z,1.40
2022-08-05T10:01:13.388Z,1.70
2022-08-05T10:03:59.445Z,1.70
2022-08-05T10:06:28.929Z,1.87
2022-08-05T10:09:28.279Z,1.63
2022-08-05T10:12:30.576Z,1.70
2022-08-05T10:15:20.450Z,1.50
2022-08-05T10:18:09.117Z,1.47
2022-08-05T10:20:41.200Z,1.50
2022-08-05T10:23:34.431Z,1.97
2022-08-05T10:26:07.006Z,1.63
2022-08-05T10:28:36.474Z,1.53
2022-08-05T10:32:47.787Z,1.53
2022-08-05T10:33:56.836Z,1.53
2022-08-05T10:36:26.960Z,1.87
2022-08-05T10:39:01.248Z,1.80
2022-08-05T10:42:00.904Z,1.60
2022-08-05T10:44:41.951Z,1.67
2022-08-05T10:47:26.426Z,1.70
2022-08-05T10:50:32.004Z,1.40
2022-08-05T10:53:01.077Z,1.70
2022-08-05T10:55:38.525Z,1.63
2022-08-05T10:58:22.515Z,1.60
2022-08-05T11:01:08.505Z,1.60
2022-08-05T11:04:01.406Z,1.63
2022-08-05T11:06:30.742Z,1.60
2022-08-05T11:09:16.750Z,1.30
2022-08-05T11:11:53.711Z,1.57
2022-08-05T11:14:57.446Z,1.40
2022-08-05T11:17:59.134Z,1.93
2022-08-05T11:20:51.506Z,1.63
2022-08-05T11:24:04.527Z,1.67
2022-08-05T11:26:33.721Z,1.67
2022-08-05T11:29:11.817Z,1.60
2022-08-05T11:31:58.329Z,1.53
2022-08-05T11:34:51.547Z,1.93
2022-08-05T11:38:28.673Z,1.90
2022-08-05T11:41:34.592Z,1.57
2022-08-05T11:44:05.723Z,1.50
2022-08-05T11:47:10.195Z,1.53
2022-08-05T11:49:29.147Z,1.67
2022-08-05T11:52:11.191Z,1.83
2022-08-05T11:54:41.441Z,1.50
2022-08-05T11:57:25.407Z,1.50
2022-08-05T11:59:56.341Z,1.57
2022-08-05T12:02:33.046Z,1.33
2022-08-05T12:05:07.010Z,1.73
2022-08-05T12:08:10.499Z,2.10
2022-08-05T12:10:43.633Z,1.50
2022-08-05T12:13:48.422Z,1.60
2022-08-05T12:16:15.085Z,1.77
2022-08-05T12:18:49.399Z,1.50
2022-08-05T12:21:26.792Z,1.60
2022-08-05T12:24:04.840Z,1.60
2022-08-05T12:26:36.274Z,2.90
2022-08-05T12:29:09.327Z,1.60
2022-08-05T12:31:42.356Z,1.50
2022-08-05T12:34:20.569Z,1.67
2022-08-05T12:36:53.320Z,1.60
2022-08-05T12:39:23.722Z,1.60
2022-08-05T12:42:05.884Z,1.70
2022-08-05T12:44:37.723Z,1.93
2022-08-05T12:47:12.426Z,1.70
2022-08-05T12:50:05.335Z,1.50
2022-08-05T12:52:38.904Z,1.20
2022-08-05T12:55:23.774Z,1.60
2022-08-05T12:58:48.201Z,1.50
2022-08-05T13:02:02.435Z,1.43
2022-08-05T13:03:42.411Z,1.40
2022-08-05T13:06:17.707Z,1.70
2022-08-05T13:08:52.061Z,1.50
2022-08-05T13:11:59.787Z,1.73
2022-08-05T13:14:24.801Z,2.00
2022-08-05T13:17:12.014Z,1.60
2022-08-05T13:19:52.679Z,1.20
2022-08-05T13:22:29.548Z,1.60
2022-08-05T13:25:05.522Z,1.57
2022-08-05T13:27:38.562Z,1.50
2022-08-05T13:30:34.659Z,1.60
2022-08-05T13:33:01.598Z,1.80
2022-08-05T13:35:47.138Z,2.00
2022-08-05T13:38:31.153Z,1.77
2022-08-05T13:41:06.871Z,1.50
2022-08-05T13:43:45.652Z,1.70
2022-08-05T13:46:37.702Z,1.50
2022-08-05T13:49:12.777Z,1.67
2022-08-05T13:51:46.343Z,1.60
2022-08-05T13:54:17.159Z,1.70
2022-08-05T13:56:51.987Z,1.50
2022-08-05T13:59:24.157Z,1.40
2022-08-05T14:01:58.414Z,1.67
2022-08-05T14:04:49.574Z,1.50
2022-08-05T14:07:56.527Z,1.53
2022-08-05T14:10:11.806Z,1.70
2022-08-05T14:12:48.433Z,1.93
2022-08-05T14:16:07.404Z,1.80
2022-08-05T14:18:15.054Z,1.77
2022-08-05T14:20:48.248Z,1.93
2022-08-05T14:23:25.177Z,1.93
2022-08-05T14:25:58.063Z,2.40
2022-08-05T14:28:30.415Z,1.90
2022-08-05T14:31:00.746Z,2.00
2022-08-05T14:33:57.021Z,2.00
2022-08-05T14:36:21.328Z,2.50
2022-08-05T14:38:50.979Z,2.00
2022-08-05T14:41:19.879Z,2.20
2022-08-05T14:44:01.473Z,2.40
2022-08-05T14:46:35.383Z,2.07
2022-08-05T14:49:07.536Z,1.93
2022-08-05T14:51:38.082Z,2.10
2022-08-05T14:54:28.002Z,1.97
2022-08-05T14:56:57.448Z,1.90
2022-08-05T14:59:29.153Z,2.17
2022-08-05T15:01:58.841Z,1.90
2022-08-05T15:04:29.012Z,2.00
2022-08-05T15:06:58.900Z,2.00
2022-08-05T15:09:51.411Z,1.90
2022-08-05T15:12:17.225Z,2.33
2022-08-05T15:14:49.967Z,2.10
2022-08-05T15:17:45.896Z,2.40
2022-08-05T15:20:19.103Z,2.03
2022-08-05T15:22:54.249Z,2.33
2022-08-05T15:25:50.910Z,2.27
2022-08-05T15:28:14.768Z,2.20
2022-08-05T15:30:46.771Z,2.27
2022-08-05T15:34:04.588Z,2.53
2022-08-05T15:36:17.773Z,3.13
2022-08-05T15:41:00.920Z,2.30
2022-08-05T15:41:57.267Z,2.20
2022-08-05T15:44:30.031Z,2.77
2022-08-05T15:47:03.627Z,2.67
2022-08-05T15:49:52.103Z,2.50
2022-08-05T15:52:29.196Z,2.50
2022-08-05T15:54:58.736Z,2.77
2022-08-05T15:57:27.864Z,3.37
2022-08-05T16:00:03.790Z,2.67
2022-08-05T16:02:34.279Z,2.47
2022-08-05T16:05:03.346Z,2.90
2022-08-05T16:07:34.438Z,3.10
2022-08-05T16:10:04.495Z,3.27
2022-08-05T16:12:38.427Z,2.33
2022-08-05T16:15:07.774Z,2.70
2022-08-05T16:17:39.722Z,2.50
2022-08-05T16:20:11.153Z,2.30
2022-08-05T16:22:40.734Z,2.53
2022-08-05T16:25:10.790Z,2.23
2022-08-05T16:28:00.293Z,2.60
2022-08-05T16:30:29.363Z,2.20
2022-08-05T16:33:00.349Z,2.70
2022-08-05T16:35:32.159Z,3.47
2022-08-05T16:38:24.700Z,2.47
2022-08-05T16:40:59.708Z,3.00
2022-08-05T16:43:31.209Z,2.57
2022-08-05T16:46:06.860Z,2.83
2022-08-05T16:48:43.098Z,2.63
2022-08-05T16:51:12.229Z,2.80
2022-08-05T16:54:05.211Z,2.73
2022-08-05T16:56:33.610Z,2.97
2022-08-05T16:59:08.036Z,3.00
2022-08-05T17:01:54.391Z,3.03
2022-08-05T17:04:27.843Z,2.77
2022-08-05T17:07:00.901Z,2.63
2022-08-05T17:09:38.974Z,3.10
2022-08-05T17:12:22.549Z,2.87
2022-08-05T17:15:09.391Z,2.80
2022-08-05T17:17:41.963Z,2.87
2022-08-05T17:20:14.785Z,2.57
2022-08-05T17:22:45.409Z,3.10
2022-08-05T17:25:33.720Z,2.87
2022-08-05T17:28:09.193Z,2.60
2022-08-05T17:30:50.221Z,2.90
2022-08-05T17:33:20.201Z,2.43
2022-08-05T17:36:09.013Z,3.40
2022-08-05T17:38:39.853Z,2.50
2022-08-05T17:41:22.813Z,2.40
2022-08-05T17:43:59.559Z,2.65
2022-08-05T17:46:28.273Z,2.57
2022-08-05T17:48:57.037Z,2.60
2022-08-05T17:51:28.196Z,7.27
2022-08-05T17:54:09.298Z,3.40
2022-08-05T17:56:38.608Z,2.87
2022-08-05T17:59:07.370Z,2.80
2022-08-05T18:01:42.702Z,2.53
2022-08-05T18:04:21.337Z,2.60
2022-08-05T18:07:00.318Z,2.63
2022-08-05T18:10:00.161Z,2.80
2022-08-05T18:12:24.042Z,2.47
2022-08-05T18:14:53.393Z,2.73
2022-08-05T18:17:58.740Z,3.10
2022-08-05T18:20:14.069Z,2.97
2022-08-05T18:22:53.932Z,3.00
2022-08-05T18:25:24.019Z,3.00
2022-08-05T18:27:53.989Z,3.27
2022-08-05T18:30:22.689Z,3.40
2022-08-05T18:33:00.474Z,3.90
2022-08-05T18:36:01.126Z,3.27
2022-08-05T18:38:26.005Z,4.03
2022-08-05T18:41:54.088Z,4.17
2022-08-05T18:43:49.047Z,4.30
2022-08-05T18:46:19.924Z,4.80
2022-08-05T18:48:51.903Z,4.80
2022-08-05T18:52:05.294Z,4.00
2022-08-05T18:54:31.711Z,5.10
2022-08-05T18:57:01.067Z,5.17
2022-08-05T18:59:43.308Z,4.60
2022-08-05T19:02:26.282Z,4.43
2022-08-05T19:05:02.885Z,5.30
2022-08-05T19:07:47.959Z,4.80
2022-08-05T19:10:28.434Z,5.20
2022-08-05T19:12:57.895Z,6.43
2022-08-05T19:15:59.645Z,6.63
2022-08-05T19:18:22.115Z,6.30
2022-08-05T19:20:52.658Z,6.37
2022-08-05T19:24:07.162Z,6.60
2022-08-05T19:26:14.174Z,7.37
2022-08-05T19:28:43.700Z,7.60
2022-08-05T19:31:17.954Z,6.73
2022-08-05T19:33:56.696Z,7.57
2022-08-05T19:36:26.198Z,7.63
2022-08-05T19:39:00.901Z,7.43
2022-08-05T19:41:58.450Z,8.23
2022-08-05T19:44:22.742Z,8.23
2022-08-05T19:46:58.008Z,8.23
2022-08-05T19:49:27.316Z,8.63
2022-08-05T19:52:08.374Z,9.40
2022-08-05T19:54:48.262Z,8.90
2022-08-05T19:57:19.189Z,8.30
2022-08-05T20:00:09.769Z,8.50
2022-08-05T20:02:38.680Z,8.30
2022-08-05T20:05:16.468Z,8.77
2022-08-05T20:07:58.875Z,8.13
2022-08-05T20:10:28.339Z,8.77
2022-08-05T20:12:59.203Z,8.30
2022-08-05T20:15:50.765Z,8.80
2022-08-05T20:18:32.548Z,7.97
2022-08-05T20:21:04.662Z,7.30
2022-08-05T20:23:40.551Z,8.20
2022-08-05T20:26:20.646Z,6.90
2022-08-05T20:28:52.797Z,7.23
2022-08-05T20:31:28.739Z,7.40
2022-08-05T20:34:12.772Z,7.93
2022-08-05T20:36:43.672Z,6.90
2022-08-05T20:39:13.576Z,7.57
2022-08-05T20:41:47.710Z,7.57
2022-08-05T20:44:29.663Z,7.90
2022-08-05T20:47:01.199Z,7.37
2022-08-05T20:49:30.112Z,7.60
2022-08-05T20:52:06.990Z,7.30
2022-08-05T20:54:55.546Z,7.90
2022-08-05T20:57:43.603Z,8.83
2022-08-05T21:00:40.962Z,7.67
2022-08-05T21:03:07.898Z,7.07
2022-08-05T21:05:54.093Z,7.10
2022-08-05T21:08:28.081Z,7.90
2022-08-05T21:11:12.089Z,7.50
2022-08-05T21:13:48.498Z,7.03
2022-08-05T21:16:29.524Z,7.17
2022-08-05T21:19:00.482Z,7.37
2022-08-05T21:21:44.454Z,8.13
2022-08-05T21:24:19.649Z,7.87
2022-08-05T21:26:53.495Z,7.40
2022-08-05T21:29:31.312Z,7.73
2022-08-05T21:32:03.866Z,7.10
2022-08-05T21:34:33.058Z,6.90
2022-08-05T21:37:04.807Z,7.40
2022-08-05T21:39:34.776Z,6.73
2022-08-05T21:42:30.530Z,7.20
2022-08-05T21:44:58.576Z,7.30
2022-08-05T21:47:55.823Z,6.70
2022-08-05T21:50:17.616Z,7.80
2022-08-05T21:52:47.408Z,7.17
2022-08-05T21:55:17.189Z,7.40
2022-08-05T21:57:46.501Z,6.77
2022-08-05T22:00:16.033Z,7.13
2022-08-05T22:02:46.870Z,5.80
2022-08-05T22:05:16.030Z,4.90
2022-08-05T22:07:58.812Z,5.20
2022-08-05T22:10:31.128Z,4.27
2022-08-05T22:13:08.755Z,4.87
2022-08-05T22:16:02.071Z,3.60
2022-08-05T22:18:39.027Z,3.60
2022-08-05T22:21:19.366Z,3.80
2022-08-05T22:24:09.058Z,3.67
2022-08-05T22:26:59.953Z,3.60
2022-08-05T22:29:30.874Z,2.77
2022-08-05T22:32:03.307Z,2.97
2022-08-05T22:34:34.031Z,2.20
2022-08-05T22:37:04.003Z,2.33
2022-08-05T22:39:34.491Z,3.03
2022-08-05T22:42:12.268Z,2.77
2022-08-05T22:44:53.602Z,2.67
2022-08-05T22:47:28.679Z,2.03
2022-08-05T22:50:20.445Z,1.80
2022-08-05T22:52:52.506Z,2.10
2022-08-05T22:55:22.547Z,2.00
2022-08-05T22:57:51.531Z,2.27
2022-08-05T23:00:22.946Z,2.13
2022-08-05T23:02:53.417Z,1.70
2022-08-05T23:05:24.589Z,1.60
2022-08-05T23:07:53.531Z,2.03
2022-08-05T23:10:23.528Z,1.60
2022-08-05T23:12:54.621Z,1.93
2022-08-05T23:15:27.036Z,1.80
2022-08-05T23:18:02.208Z,2.10
2022-08-05T23:20:37.300Z,2.10
2022-08-05T23:23:08.250Z,2.00
2022-08-05T23:25:52.144Z,2.27
2022-08-05T23:28:29.125Z,2.10
2022-08-05T23:31:06.967Z,1.93
2022-08-05T23:34:03.805Z,1.80
2022-08-05T23:36:39.876Z,1.83
2022-08-05T23:39:17.501Z,1.80
2022-08-05T23:42:01.351Z,1.70
2022-08-05T23:44:31.508Z,2.00
2022-08-05T23:47:02.627Z,2.03
2022-08-05T23:49:45.651Z,1.87
2022-08-05T23:52:29.295Z,1.60
2022-08-05T23:55:01.580Z,1.90
2022-08-05T23:57:30.450Z,1.90
